Time;durP1;ratioP1;P1;durP2;ratioP2;P2;SDS_P1;SDS_P2;PMS_P1;PMS_P2;Temp;Humidity;BMP_temperature;BMP_pressure;BME280_temperature;BME280_humidity;BME280_pressure;Samples;Min_cycle;Max_cycle;Signal;HPM_P1;HPM_P2
2022/01/12 00:00:05;;;;;;;;;;;19.90;34.30;;;;;;5075978;28;19954;-61
2022/01/12 00:02:30;;;;;;;;;;;19.90;34.40;;;;;;5076194;28;20416;-61
2022/01/12 00:04:57;;;;;;;;;;;19.90;34.40;;;;;;5075987;28;20006;-62
2022/01/12 00:07:23;;;;;;;;;;;19.80;34.40;;;;;;5075977;28;20283;-61
2022/01/12 00:09:48;;;;;;;;;;;19.90;34.40;;;;;;5075969;28;19908;-61
2022/01/12 00:12:13;;;;;;;;;;;19.80;34.40;;;;;;5075899;28;20182;-61
2022/01/12 00:14:39;;;;;;;;;;;19.80;34.40;;;;;;5075909;28;19931;-61
2022/01/12 00:17:04;;;;;;;;;;;19.80;34.40;;;;;;5075782;28;19916;-61
2022/01/12 00:19:30;;;;;;;;;;;19.80;34.40;;;;;;5075786;28;19915;-61
2022/01/12 00:21:56;;;;;;;;;;;19.80;34.40;;;;;;5075626;28;19954;-61
2022/01/12 00:24:25;;;;;;;;;;;19.80;34.30;;;;;;5075496;28;20023;-61
2022/01/12 00:35:03;;;;;;;;;;;19.70;34.40;;;;;;5075842;28;19979;-61
2022/01/12 00:37:29;;;;;;;;;;;19.80;34.40;;;;;;5075349;28;19920;-61
2022/01/12 00:39:58;;;;;;;;;;;19.80;34.30;;;;;;5075341;28;20288;-61
2022/01/12 00:42:26;;;;;;;;;;;19.70;34.30;;;;;;5075318;28;19953;-61
2022/01/12 00:44:53;;;;;;;;;;;19.70;34.30;;;;;;5075382;28;19909;-61
2022/01/12 00:47:18;;;;;;;;;;;19.70;34.30;;;;;;5075212;28;19908;-61
2022/01/12 00:49:43;;;;;;;;;;;19.70;34.30;;;;;;5075170;28;20352;-62
2022/01/12 00:52:09;;;;;;;;;;;19.70;34.30;;;;;;5075107;28;19954;-62
2022/01/12 00:54:35;;;;;;;;;;;19.70;34.40;;;;;;5075370;28;19962;-61
2022/01/12 00:57:00;;;;;;;;;;;19.60;34.40;;;;;;5075205;28;19917;-61
2022/01/12 00:59:25;;;;;;;;;;;19.60;34.30;;;;;;5074837;28;19920;-61
2022/01/12 01:01:51;;;;;;;;;;;19.60;34.30;;;;;;5075165;28;19955;-61
2022/01/12 01:04:16;;;;;;;;;;;19.60;34.30;;;;;;5075069;28;19969;-61
2022/01/12 01:06:42;;;;;;;;;;;19.60;34.30;;;;;;5074879;28;19917;-62
2022/01/12 01:09:07;;;;;;;;;;;19.70;34.30;;;;;;5075317;28;19916;-62
2022/01/12 01:11:33;;;;;;;;;;;19.70;34.30;;;;;;5074699;28;19919;-61
2022/01/12 01:14:02;;;;;;;;;;;19.70;34.30;;;;;;5074790;28;19937;-61
2022/01/12 01:27:19;;;;;;;;;;;19.60;34.20;;;;;;5074624;28;20003;-62
2022/01/12 01:29:44;;;;;;;;;;;19.60;34.30;;;;;;5074414;28;19944;-61
2022/01/12 01:32:11;;;;;;;;;;;19.50;34.30;;;;;;5056507;28;19912;-61
2022/01/12 01:34:43;;;;;;;;;;;19.50;34.30;;;;;;5073905;28;19909;-61
2022/01/12 01:37:08;;;;;;;;;;;19.50;34.30;;;;;;5074224;28;19916;-61
2022/01/12 01:39:34;;;;;;;;;;;19.50;34.30;;;;;;5074266;28;19915;-61
2022/01/12 01:42:05;;;;;;;;;;;19.50;34.30;;;;;;5074226;28;19999;-61
2022/01/12 01:55:20;;;;;;;;;;;19.50;34.30;;;;;;5074450;28;19915;-62
2022/01/12 01:57:46;;;;;;;;;;;19.50;34.30;;;;;;5056015;28;20402;-61
2022/01/12 02:00:14;;;;;;;;;;;19.50;34.30;;;;;;5055168;28;20322;-61
2022/01/12 02:02:40;;;;;;;;;;;19.50;34.30;;;;;;5073123;28;19909;-61
2022/01/12 02:05:05;;;;;;;;;;;19.50;34.30;;;;;;5073111;28;19916;-62
2022/01/12 02:07:32;;;;;;;;;;;19.50;34.30;;;;;;5073036;28;19908;-61
2022/01/12 02:09:58;;;;;;;;;;;19.50;34.30;;;;;;5072969;28;20360;-61
2022/01/12 02:12:24;;;;;;;;;;;19.50;34.30;;;;;;5072969;28;19909;-61
2022/01/12 02:14:50;;;;;;;;;;;19.50;34.30;;;;;;5073137;28;19909;-61
2022/01/12 02:17:20;;;;;;;;;;;19.40;34.30;;;;;;5072788;28;20437;-62
2022/01/12 02:36:09;;;;;;;;;;;19.40;34.40;;;;;;5072952;28;19916;-61
2022/01/12 02:41:19;;;;;;;;;;;19.40;34.30;;;;;;5072567;28;19951;-61
2022/01/12 02:50:40;;;;;;;;;;;19.40;34.30;;;;;;5072482;28;19948;-61
2022/01/12 02:54:47;;;;;;;;;;;19.40;34.30;;;;;;5072584;28;19912;-61
2022/01/12 02:57:12;;;;;;;;;;;19.40;34.30;;;;;;5072253;28;19913;-61
2022/01/12 02:59:41;;;;;;;;;;;19.40;34.30;;;;;;5012317;28;1706413;-61
2022/01/12 03:04:50;;;;;;;;;;;19.30;34.30;;;;;;5073451;28;19909;-61
2022/01/12 03:07:19;;;;;;;;;;;19.30;34.30;;;;;;5073208;28;19915;-61
2022/01/12 03:09:45;;;;;;;;;;;19.30;34.30;;;;;;5073078;28;19946;-61
2022/01/12 03:12:10;;;;;;;;;;;19.30;34.30;;;;;;5073040;28;20268;-61
2022/01/12 03:14:36;;;;;;;;;;;19.30;34.20;;;;;;5073026;28;20288;-61
2022/01/12 03:17:01;;;;;;;;;;;19.30;34.30;;;;;;5072942;28;20032;-61
2022/01/12 03:19:27;;;;;;;;;;;19.30;34.30;;;;;;5055059;28;19951;-61
2022/01/12 03:21:52;;;;;;;;;;;19.30;34.30;;;;;;5054970;28;20360;-62
2022/01/12 03:24:18;;;;;;;;;;;19.30;34.30;;;;;;5054980;28;20311;-62
2022/01/12 03:26:43;;;;;;;;;;;19.30;34.30;;;;;;5073006;28;20268;-62
2022/01/12 03:29:09;;;;;;;;;;;19.30;34.20;;;;;;5072858;28;19908;-61
2022/01/12 03:31:35;;;;;;;;;;;19.30;34.30;;;;;;5072865;28;19962;-61
2022/01/12 03:34:23;;;;;;;;;;;19.30;34.30;;;;;;5072866;28;20340;-61
2022/01/12 03:39:33;;;;;;;;;;;19.30;34.20;;;;;;5073194;28;19923;-61
2022/01/12 03:41:59;;;;;;;;;;;19.30;34.30;;;;;;5072748;28;19909;-61
2022/01/12 03:44:24;;;;;;;;;;;19.30;34.30;;;;;;5072771;28;19916;-61
2022/01/12 03:46:50;;;;;;;;;;;19.30;34.30;;;;;;5072741;28;19915;-61
2022/01/12 03:49:16;;;;;;;;;;;19.30;34.30;;;;;;5072766;28;19915;-61
2022/01/12 03:51:42;;;;;;;;;;;19.30;34.30;;;;;;5072723;28;19999;-61
2022/01/12 03:54:09;;;;;;;;;;;19.20;34.30;;;;;;5072622;28;19915;-61
2022/01/12 03:56:35;;;;;;;;;;;19.30;34.30;;;;;;5072751;28;19913;-61
2022/01/12 03:59:00;;;;;;;;;;;19.30;34.30;;;;;;5074868;28;20314;-61
2022/01/12 04:01:25;;;;;;;;;;;19.20;34.30;;;;;;5076092;28;20261;-61
2022/01/12 04:04:00;;;;;;;;;;;19.20;34.30;;;;;;5076161;28;19934;-61
2022/01/12 04:09:10;;;;;;;;;;;19.20;34.20;;;;;;5076396;28;19915;-61
2022/01/12 04:11:36;;;;;;;;;;;19.20;34.30;;;;;;5075952;28;19909;-61
2022/01/12 04:14:03;;;;;;;;;;;19.20;34.20;;;;;;5075949;28;19953;-61
2022/01/12 04:16:28;;;;;;;;;;;19.20;34.30;;;;;;5075807;28;19954;-62
2022/01/12 04:18:53;;;;;;;;;;;19.20;34.30;;;;;;5075833;28;19908;-61
2022/01/12 04:21:26;;;;;;;;;;;19.20;34.30;;;;;;5075810;28;19909;-61
2022/01/12 04:23:52;;;;;;;;;;;19.20;34.30;;;;;;5075787;28;19953;-61
2022/01/12 04:26:17;;;;;;;;;;;19.20;34.30;;;;;;5057758;28;19962;-62
2022/01/12 04:28:43;;;;;;;;;;;19.20;34.30;;;;;;5075672;28;19981;-62
2022/01/12 04:31:09;;;;;;;;;;;19.20;34.30;;;;;;5075671;28;19909;-61
2022/01/12 04:33:36;;;;;;;;;;;19.20;34.30;;;;;;5075387;28;19915;-62
2022/01/12 04:36:02;;;;;;;;;;;19.20;34.30;;;;;;5075789;28;19913;-62
2022/01/12 04:38:29;;;;;;;;;;;19.20;34.30;;;;;;5075404;28;19966;-61
2022/01/12 04:40:55;;;;;;;;;;;19.20;34.30;;;;;;5075733;28;19908;-62
2022/01/12 04:43:22;;;;;;;;;;;19.20;34.30;;;;;;5075756;28;19955;-62
2022/01/12 04:48:33;;;;;;;;;;;19.20;34.30;;;;;;5075582;28;20037;-61
2022/01/12 04:50:59;;;;;;;;;;;19.20;34.30;;;;;;5075300;28;19909;-61
2022/01/12 04:53:25;;;;;;;;;;;19.10;34.30;;;;;;5075235;28;20421;-61
2022/01/12 04:55:51;;;;;;;;;;;19.20;34.30;;;;;;5057289;28;19946;-61
2022/01/12 04:58:17;;;;;;;;;;;19.20;34.30;;;;;;5074778;28;19928;-61
2022/01/12 05:00:43;;;;;;;;;;;19.10;34.30;;;;;;5074887;28;19909;-61
2022/01/12 05:13:56;;;;;;;;;;;19.10;34.30;;;;;;5075189;28;20008;-62
2022/01/12 05:16:22;;;;;;;;;;;19.20;34.30;;;;;;5074751;28;19916;-61
2022/01/12 05:18:48;;;;;;;;;;;19.20;34.30;;;;;;5074645;28;19917;-62
2022/01/12 05:21:15;;;;;;;;;;;19.20;34.30;;;;;;5056702;28;20030;-60
2022/01/12 05:23:40;;;;;;;;;;;19.20;34.30;;;;;;5074597;28;19959;-61
2022/01/12 05:26:06;;;;;;;;;;;19.20;34.20;;;;;;5074548;28;19955;-62
2022/01/12 05:28:32;;;;;;;;;;;19.20;34.20;;;;;;5074596;28;20379;-61
2022/01/12 05:30:58;;;;;;;;;;;19.30;34.20;;;;;;5074276;28;19916;-62
2022/01/12 05:33:24;;;;;;;;;;;19.30;34.20;;;;;;5074347;28;19947;-61
2022/01/12 05:35:51;;;;;;;;;;;19.30;34.10;;;;;;5074343;28;19998;-61
2022/01/12 05:38:16;;;;;;;;;;;19.30;34.10;;;;;;5074498;28;20345;-61
2022/01/12 05:40:45;;;;;;;;;;;19.40;34.10;;;;;;5074489;28;19955;-61
2022/01/12 05:43:10;;;;;;;;;;;19.40;34.10;;;;;;5074187;28;19908;-61
2022/01/12 05:45:39;;;;;;;;;;;19.40;34.00;;;;;;5074154;28;19913;-62
2022/01/12 05:50:37;;;;;;;;;;;19.50;34.00;;;;;;5074048;28;20311;-61
2022/01/12 05:53:02;;;;;;;;;;;19.50;34.00;;;;;;5074051;28;19944;-61
2022/01/12 05:55:28;;;;;;;;;;;19.50;34.00;;;;;;5073927;28;20371;-61
2022/01/12 05:57:53;;;;;;;;;;;19.50;34.00;;;;;;5073819;28;20019;-61
2022/01/12 06:00:20;;;;;;;;;;;19.50;34.00;;;;;;5073725;28;20253;-61
2022/01/12 06:02:45;;;;;;;;;;;19.50;34.00;;;;;;5074159;28;19913;-61
2022/01/12 06:05:14;;;;;;;;;;;19.50;34.00;;;;;;5073800;28;19909;-61
2022/01/12 06:07:40;;;;;;;;;;;19.50;34.00;;;;;;5073963;28;19909;-61
2022/01/12 06:10:05;;;;;;;;;;;19.50;33.90;;;;;;5073696;28;19954;-61
2022/01/12 06:12:30;;;;;;;;;;;19.50;34.00;;;;;;5073546;28;19923;-62
2022/01/12 06:14:56;;;;;;;;;;;19.60;34.00;;;;;;5073499;28;19931;-62
2022/01/12 06:17:22;;;;;;;;;;;19.50;33.90;;;;;;5073541;28;20284;-61
2022/01/12 06:19:48;;;;;;;;;;;19.50;33.90;;;;;;5073490;28;20342;-61
2022/01/12 06:22:13;;;;;;;;;;;19.60;33.90;;;;;;5073300;28;19990;-61
2022/01/12 06:24:39;;;;;;;;;;;19.60;33.90;;;;;;5073467;28;19920;-61
2022/01/12 06:27:05;;;;;;;;;;;19.60;33.90;;;;;;5073617;28;19909;-61
2022/01/12 06:29:43;;;;;;;;;;;19.60;33.90;;;;;;5073456;28;19909;-61
2022/01/12 06:32:09;;;;;;;;;;;19.60;33.90;;;;;;5073430;28;20249;-61
2022/01/12 06:34:35;;;;;;;;;;;19.60;33.90;;;;;;5073703;28;19915;-61
2022/01/12 06:37:00;;;;;;;;;;;19.70;33.90;;;;;;5073191;28;20367;-61
2022/01/12 06:39:26;;;;;;;;;;;19.70;33.90;;;;;;5073524;28;19908;-61
2022/01/12 06:41:53;;;;;;;;;;;19.70;33.90;;;;;;5073307;28;19951;-61
2022/01/12 06:44:20;;;;;;;;;;;19.70;33.90;;;;;;5073360;28;20351;-62
2022/01/12 06:46:50;;;;;;;;;;;19.70;33.90;;;;;;5055278;28;19913;-61
2022/01/12 06:49:16;;;;;;;;;;;19.70;33.90;;;;;;5073280;28;20351;-62
2022/01/12 06:51:43;;;;;;;;;;;19.70;33.90;;;;;;5073194;28;19909;-61
2022/01/12 06:54:09;;;;;;;;;;;19.70;33.90;;;;;;5073187;28;19991;-62
2022/01/12 06:56:34;;;;;;;;;;;19.70;33.90;;;;;;5073399;28;19908;-62
2022/01/12 06:59:00;;;;;;;;;;;19.80;33.90;;;;;;5073005;28;19943;-61
2022/01/12 07:01:25;;;;;;;;;;;19.80;33.90;;;;;;5055157;28;19997;-62
2022/01/12 07:03:51;;;;;;;;;;;19.80;33.80;;;;;;5055129;28;20284;-61
2022/01/12 07:06:18;;;;;;;;;;;19.80;33.90;;;;;;5066269;28;19912;-61
2022/01/12 07:08:43;;;;;;;;;;;19.80;33.80;;;;;;5087119;28;19920;-61
2022/01/12 07:11:09;;;;;;;;;;;19.90;33.80;;;;;;5084550;28;19927;-62
2022/01/12 07:13:34;;;;;;;;;;;19.90;33.80;;;;;;5089466;28;19995;-62
2022/01/12 07:16:00;;;;;;;;;;;19.90;33.80;;;;;;5083165;28;19913;-61
2022/01/12 07:18:26;;;;;;;;;;;19.80;33.90;;;;;;5090886;28;19920;-62
2022/01/12 07:20:51;;;;;;;;;;;19.90;33.90;;;;;;5078112;28;20340;-61
2022/01/12 07:23:17;;;;;;;;;;;19.90;33.90;;;;;;5071685;28;20396;-61
2022/01/12 07:25:43;;;;;;;;;;;19.90;34.00;;;;;;5063363;28;19923;-61
2022/01/12 07:28:09;;;;;;;;;;;19.90;34.10;;;;;;5072040;28;19956;-62
2022/01/12 07:30:34;;;;;;;;;;;20.00;34.10;;;;;;5079568;28;19935;-62
2022/01/12 07:33:00;;;;;;;;;;;20.00;34.10;;;;;;5093242;28;19954;-62
2022/01/12 07:35:25;;;;;;;;;;;20.00;34.20;;;;;;5095746;28;19912;-62
2022/01/12 07:37:51;;;;;;;;;;;20.00;34.20;;;;;;5085092;28;20435;-62
2022/01/12 07:40:16;;;;;;;;;;;20.00;34.20;;;;;;5090737;28;19991;-63
2022/01/12 07:42:42;;;;;;;;;;;20.00;34.20;;;;;;5095775;28;19908;-62
2022/01/12 07:45:08;;;;;;;;;;;20.00;34.20;;;;;;5095527;28;19919;-61
2022/01/12 07:47:34;;;;;;;;;;;20.00;34.20;;;;;;5095472;28;19908;-62
2022/01/12 07:50:00;;;;;;;;;;;20.00;34.20;;;;;;5077281;28;20416;-61
2022/01/12 07:52:26;;;;;;;;;;;20.00;34.10;;;;;;5088435;28;19912;-63
2022/01/12 07:54:52;;;;;;;;;;;20.00;34.10;;;;;;5084003;28;20057;-61
2022/01/12 07:57:17;;;;;;;;;;;20.00;34.10;;;;;;5094801;28;20010;-61
2022/01/12 07:59:43;;;;;;;;;;;20.10;34.10;;;;;;5092035;28;19929;-61
2022/01/12 08:02:08;;;;;;;;;;;20.10;34.20;;;;;;5089238;28;20384;-61
2022/01/12 08:04:34;;;;;;;;;;;20.10;34.20;;;;;;5095035;28;20641;-62
2022/01/12 08:06:59;;;;;;;;;;;20.10;34.20;;;;;;5094600;28;20010;-61
2022/01/12 08:09:25;;;;;;;;;;;20.10;34.30;;;;;;5089143;28;19965;-61
2022/01/12 08:11:50;;;;;;;;;;;20.10;34.30;;;;;;5088069;28;19908;-60
2022/01/12 08:14:16;;;;;;;;;;;20.10;34.30;;;;;;5067289;28;19912;-61
2022/01/12 08:16:42;;;;;;;;;;;20.10;34.30;;;;;;5091000;28;19914;-61
2022/01/12 08:19:07;;;;;;;;;;;20.10;34.30;;;;;;5095144;28;20295;-60
2022/01/12 08:21:33;;;;;;;;;;;20.20;34.30;;;;;;5092026;28;19957;-61
2022/01/12 08:23:58;;;;;;;;;;;20.20;34.30;;;;;;5095012;28;20014;-62
2022/01/12 08:26:24;;;;;;;;;;;20.20;34.30;;;;;;5090972;28;20367;-62
2022/01/12 08:28:49;;;;;;;;;;;20.20;34.30;;;;;;5094887;28;19935;-63
2022/01/12 08:31:15;;;;;;;;;;;20.20;34.30;;;;;;5092652;28;19960;-61
2022/01/12 08:33:40;;;;;;;;;;;20.20;34.30;;;;;;5094466;28;19912;-61
2022/01/12 08:36:06;;;;;;;;;;;20.30;34.30;;;;;;5089614;28;19939;-61
2022/01/12 08:38:31;;;;;;;;;;;20.20;34.30;;;;;;5094504;28;19921;-61
2022/01/12 08:40:57;;;;;;;;;;;20.30;34.40;;;;;;5093148;28;20658;-61
2022/01/12 08:43:22;;;;;;;;;;;20.30;34.40;;;;;;5094850;28;19916;-61
2022/01/12 08:45:48;;;;;;;;;;;20.30;34.40;;;;;;5073464;28;19908;-62
2022/01/12 08:48:13;;;;;;;;;;;20.30;34.40;;;;;;5079071;28;19922;-62
2022/01/12 08:50:39;;;;;;;;;;;20.30;34.40;;;;;;5085463;28;19959;-61
2022/01/12 08:53:06;;;;;;;;;;;20.30;34.30;;;;;;5076587;28;19934;-62
2022/01/12 08:55:31;;;;;;;;;;;20.30;34.40;;;;;;5070698;28;19941;-62
2022/01/12 08:57:58;;;;;;;;;;;20.30;34.40;;;;;;5081203;28;19966;-61
2022/01/12 09:00:24;;;;;;;;;;;20.30;34.40;;;;;;5079938;28;20006;-61
2022/01/12 09:02:50;;;;;;;;;;;20.30;34.40;;;;;;5064073;28;19954;-61
2022/01/12 09:05:15;;;;;;;;;;;20.30;34.50;;;;;;5078468;28;19916;-61
2022/01/12 09:07:41;;;;;;;;;;;20.30;34.40;;;;;;5093480;28;20002;-61
2022/01/12 09:10:07;;;;;;;;;;;20.30;34.40;;;;;;5093029;28;20034;-62
2022/01/12 09:12:32;;;;;;;;;;;20.40;34.40;;;;;;5093406;28;19915;-62
2022/01/12 09:14:58;;;;;;;;;;;20.40;34.40;;;;;;5080731;28;20379;-62
2022/01/12 09:17:23;;;;;;;;;;;20.40;34.40;;;;;;5086027;28;19932;-62
2022/01/12 09:19:49;;;;;;;;;;;20.40;34.40;;;;;;5078206;28;20306;-62
2022/01/12 09:22:15;;;;;;;;;;;20.40;34.40;;;;;;5093485;28;19931;-62
2022/01/12 09:24:42;;;;;;;;;;;20.40;34.40;;;;;;5090161;28;20382;-61
2022/01/12 09:27:07;;;;;;;;;;;20.40;34.40;;;;;;5079122;28;19934;-62
2022/01/12 09:29:33;;;;;;;;;;;20.50;34.40;;;;;;5090652;28;19931;-61
2022/01/12 09:32:00;;;;;;;;;;;20.40;34.50;;;;;;5071234;28;19920;-61
2022/01/12 09:34:25;;;;;;;;;;;20.50;34.40;;;;;;5074420;28;19970;-61
2022/01/12 09:36:51;;;;;;;;;;;20.50;34.50;;;;;;5074767;28;19916;-60
2022/01/12 09:39:16;;;;;;;;;;;20.50;34.50;;;;;;5093389;28;19911;-60
2022/01/12 09:41:42;;;;;;;;;;;20.50;34.40;;;;;;5093132;28;19912;-60
2022/01/12 09:44:07;;;;;;;;;;;20.50;34.40;;;;;;5092054;28;19912;-61
2022/01/12 09:46:33;;;;;;;;;;;20.50;34.40;;;;;;5092358;28;19916;-60
2022/01/12 09:49:00;;;;;;;;;;;20.50;34.40;;;;;;5088234;28;19955;-60
2022/01/12 09:51:26;;;;;;;;;;;20.50;34.40;;;;;;5076266;28;19962;-60
2022/01/12 09:53:52;;;;;;;;;;;20.50;34.40;;;;;;5090933;28;19955;-61
2022/01/12 09:56:20;;;;;;;;;;;20.50;34.50;;;;;;5091535;28;20539;-60
2022/01/12 09:58:47;;;;;;;;;;;20.70;34.30;;;;;;5090937;28;19924;-60
2022/01/12 10:01:21;;;;;;;;;;;20.60;34.30;;;;;;5092290;28;19950;-59
2022/01/12 10:03:46;;;;;;;;;;;20.60;34.30;;;;;;5078633;28;19913;-60
2022/01/12 10:06:13;;;;;;;;;;;20.60;34.40;;;;;;5085003;28;19935;-60
2022/01/12 10:08:39;;;;;;;;;;;20.60;34.30;;;;;;5079736;28;19967;-60
2022/01/12 10:11:06;;;;;;;;;;;20.60;34.40;;;;;;5091280;28;19948;-60
2022/01/12 10:13:31;;;;;;;;;;;20.60;34.40;;;;;;5072205;28;20034;-60
2022/01/12 10:15:57;;;;;;;;;;;20.60;34.40;;;;;;5078583;28;19961;-60
2022/01/12 10:18:22;;;;;;;;;;;20.60;34.40;;;;;;5092576;28;20382;-60
2022/01/12 10:20:48;;;;;;;;;;;20.70;34.40;;;;;;5092700;28;19919;-61
2022/01/12 10:23:15;;;;;;;;;;;20.70;34.40;;;;;;5092469;28;20422;-61
2022/01/12 10:25:45;;;;;;;;;;;20.70;34.50;;;;;;5092298;28;20017;-61
2022/01/12 10:28:14;;;;;;;;;;;20.70;34.50;;;;;;5092544;28;19916;-61
2022/01/12 10:30:39;;;;;;;;;;;20.60;34.40;;;;;;5092493;28;19969;-61
2022/01/12 10:33:07;;;;;;;;;;;20.60;34.40;;;;;;5092890;28;19908;-62
2022/01/12 10:35:34;;;;;;;;;;;20.70;34.40;;;;;;5092390;28;20056;-62
2022/01/12 10:38:07;;;;;;;;;;;20.70;34.40;;;;;;5092349;28;19942;-62
2022/01/12 10:40:45;;;;;;;;;;;20.70;34.50;;;;;;5092196;28;20417;-62
2022/01/12 10:43:26;;;;;;;;;;;20.70;34.40;;;;;;5092331;28;19915;-61
2022/01/12 10:45:52;;;;;;;;;;;20.70;34.40;;;;;;5092297;28;19919;-62
2022/01/12 10:48:17;;;;;;;;;;;20.70;34.50;;;;;;5092476;28;19908;-61
2022/01/12 10:50:56;;;;;;;;;;;20.70;34.50;;;;;;5092081;28;19973;-61
2022/01/12 10:53:33;;;;;;;;;;;20.70;34.50;;;;;;5092587;28;19994;-61
2022/01/12 10:56:10;;;;;;;;;;;20.70;34.40;;;;;;5092202;28;19950;-61
2022/01/12 10:58:37;;;;;;;;;;;20.70;34.50;;;;;;5091792;28;20061;-62
2022/01/12 11:01:02;;;;;;;;;;;20.70;34.50;;;;;;5091949;28;19953;-61
2022/01/12 11:03:29;;;;;;;;;;;20.80;34.40;;;;;;5092350;28;19962;-61
2022/01/12 11:05:55;;;;;;;;;;;20.70;34.40;;;;;;5091810;28;20406;-62
2022/01/12 11:08:23;;;;;;;;;;;20.90;34.40;;;;;;5093978;28;20001;-61
2022/01/12 11:10:49;;;;;;;;;;;20.80;34.30;;;;;;5096282;28;19912;-61
2022/01/12 11:13:14;;;;;;;;;;;20.80;34.30;;;;;;5094903;28;19915;-62
2022/01/12 11:15:40;;;;;;;;;;;20.80;34.40;;;;;;5084132;28;19912;-61
2022/01/12 11:18:07;;;;;;;;;;;20.80;34.40;;;;;;5096499;28;19916;-62
2022/01/12 11:20:33;;;;;;;;;;;20.80;34.50;;;;;;5096047;28;19912;-61
2022/01/12 11:23:17;;;;;;;;;;;20.80;34.50;;;;;;5096213;28;19912;-62
2022/01/12 11:25:47;;;;;;;;;;;20.80;34.50;;;;;;5095511;28;20399;-61
2022/01/12 11:28:17;;;;;;;;;;;20.80;34.60;;;;;;5095071;28;19990;-60
2022/01/12 11:30:45;;;;;;;;;;;20.80;34.60;;;;;;5094569;28;19999;-60
2022/01/12 11:33:11;;;;;;;;;;;20.80;34.60;;;;;;5091276;28;19978;-62
2022/01/12 11:35:42;;;;;;;;;;;20.90;34.60;;;;;;5086850;28;19957;-64
2022/01/12 11:38:08;;;;;;;;;;;20.90;34.50;;;;;;5098989;28;19927;-62
2022/01/12 11:40:37;;;;;;;;;;;20.90;34.60;;;;;;5101691;28;20005;-60
2022/01/12 11:43:02;;;;;;;;;;;20.90;34.70;;;;;;5102490;28;19920;-60
2022/01/12 11:45:28;;;;;;;;;;;20.90;34.70;;;;;;5108430;28;19911;-59
2022/01/12 11:47:53;;;;;;;;;;;20.90;34.70;;;;;;5114410;28;19915;-60
2022/01/12 11:50:19;;;;;;;;;;;20.90;34.70;;;;;;5100151;28;19919;-62
2022/01/12 11:52:44;;;;;;;;;;;20.90;34.70;;;;;;5077016;28;20006;-62
2022/01/12 11:55:12;;;;;;;;;;;20.90;34.70;;;;;;5095027;28;20001;-61
2022/01/12 11:57:41;;;;;;;;;;;20.90;34.80;;;;;;5095628;28;19916;-61
2022/01/12 12:00:11;;;;;;;;;;;20.90;34.90;;;;;;5094723;28;20395;-62
2022/01/12 12:02:36;;;;;;;;;;;20.90;34.80;;;;;;5095573;28;19999;-61
2022/01/12 12:05:08;;;;;;;;;;;20.90;34.90;;;;;;5093257;28;20007;-61
2022/01/12 12:07:46;;;;;;;;;;;20.90;34.90;;;;;;5074692;28;19916;-62
2022/01/12 12:10:14;;;;;;;;;;;20.90;34.90;;;;;;5076204;28;19916;-61
2022/01/12 12:12:40;;;;;;;;;;;20.90;34.80;;;;;;5076550;28;20324;-62
2022/01/12 12:15:06;;;;;;;;;;;21.00;34.80;;;;;;5082265;28;19918;-61
2022/01/12 12:17:32;;;;;;;;;;;21.00;34.80;;;;;;5077067;28;20373;-62
2022/01/12 12:19:59;;;;;;;;;;;21.00;34.90;;;;;;5094053;28;19920;-61
2022/01/12 12:22:34;;;;;;;;;;;21.00;34.80;;;;;;5094372;28;19986;-65
2022/01/12 12:25:06;;;;;;;;;;;21.00;34.70;;;;;;5095190;28;19908;-63
2022/01/12 12:27:32;;;;;;;;;;;21.00;34.80;;;;;;5095733;28;19917;-64
2022/01/12 12:29:58;;;;;;;;;;;21.00;34.80;;;;;;5094253;28;20051;-63
2022/01/12 12:32:34;;;;;;;;;;;21.00;34.90;;;;;;5095726;28;19935;-61
2022/01/12 12:35:01;;;;;;;;;;;21.00;34.90;;;;;;5095614;28;19920;-63
2022/01/12 12:37:32;;;;;;;;;;;21.00;34.80;;;;;;5095591;28;19946;-63
2022/01/12 12:39:58;;;;;;;;;;;21.00;34.80;;;;;;5094096;28;19923;-64
2022/01/12 12:42:23;;;;;;;;;;;21.00;34.80;;;;;;5082985;28;20311;-63
2022/01/12 12:44:55;;;;;;;;;;;21.00;34.90;;;;;;5084973;28;20207;-64
2022/01/12 12:47:21;;;;;;;;;;;21.00;34.80;;;;;;5075181;28;19908;-64
2022/01/12 12:49:47;;;;;;;;;;;21.00;34.80;;;;;;5076640;28;20311;-63
2022/01/12 12:52:21;;;;;;;;;;;21.00;35.00;;;;;;5092582;28;19923;-64
2022/01/12 12:54:46;;;;;;;;;;;21.00;34.90;;;;;;5092222;28;19981;-63
2022/01/12 12:57:12;;;;;;;;;;;21.00;34.90;;;;;;5093437;28;19916;-62
2022/01/12 12:59:37;;;;;;;;;;;21.00;34.90;;;;;;5083704;28;19945;-63
2022/01/12 13:02:11;;;;;;;;;;;21.00;34.90;;;;;;5084346;28;20058;-65
2022/01/12 13:04:36;;;;;;;;;;;21.00;35.00;;;;;;5082258;28;19954;-63
2022/01/12 13:07:18;;;;;;;;;;;21.00;35.10;;;;;;5087052;28;20374;-65
2022/01/12 13:09:44;;;;;;;;;;;21.00;35.10;;;;;;5069520;28;19963;-64
2022/01/12 13:12:10;;;;;;;;;;;21.00;35.00;;;;;;5076812;28;19913;-64
2022/01/12 13:14:46;;;;;;;;;;;21.00;35.10;;;;;;5082400;28;20253;-65
2022/01/12 13:17:11;;;;;;;;;;;21.00;35.10;;;;;;5086043;28;19926;-64
2022/01/12 13:22:36;;;;;;;;;;;21.00;35.20;;;;;;5064572;28;19908;-64
2022/01/12 13:25:04;;;;;;;;;;;21.00;35.20;;;;;;5085185;28;19919;-65
2022/01/12 13:27:31;;;;;;;;;;;21.00;35.20;;;;;;5092334;28;19946;-63
2022/01/12 13:29:57;;;;;;;;;;;21.00;35.20;;;;;;5088744;28;20322;-64
2022/01/12 13:32:22;;;;;;;;;;;21.00;35.20;;;;;;5086644;28;20005;-63
2022/01/12 13:34:55;;;;;;;;;;;21.00;35.20;;;;;;5075812;28;19924;-64
2022/01/12 13:37:20;;;;;;;;;;;21.00;35.30;;;;;;5083005;28;19925;-65
2022/01/12 13:39:47;;;;;;;;;;;21.00;35.20;;;;;;5093092;28;19916;-64
2022/01/12 13:42:13;;;;;;;;;;;21.00;35.30;;;;;;5078924;28;19916;-65
2022/01/12 13:44:38;;;;;;;;;;;21.00;35.30;;;;;;5082018;28;20257;-64
2022/01/12 13:47:10;;;;;;;;;;;21.00;35.30;;;;;;5091797;28;20028;-63
2022/01/12 13:49:36;;;;;;;;;;;21.00;35.40;;;;;;5063750;28;19912;-63
2022/01/12 13:52:01;;;;;;;;;;;21.10;35.20;;;;;;5092812;28;20363;-66
2022/01/12 13:54:29;;;;;;;;;;;21.10;35.30;;;;;;5091161;28;19923;-64
2022/01/12 13:56:55;;;;;;;;;;;21.10;35.20;;;;;;5092269;28;19931;-65
2022/01/12 13:59:21;;;;;;;;;;;21.10;35.20;;;;;;5092205;28;20081;-62
2022/01/12 14:01:47;;;;;;;;;;;21.10;35.20;;;;;;5085287;28;19937;-63
2022/01/12 14:04:23;;;;;;;;;;;21.10;35.30;;;;;;5092534;28;20405;-64
2022/01/12 14:06:51;;;;;;;;;;;21.10;35.20;;;;;;5092342;28;19918;-64
2022/01/12 14:11:53;;;;;;;;;;;21.10;35.20;;;;;;5083942;28;20321;-64
2022/01/12 14:14:19;;;;;;;;;;;21.10;35.30;;;;;;5089246;28;20278;-64
2022/01/12 14:16:44;;;;;;;;;;;21.10;35.30;;;;;;5082103;28;20291;-63
2022/01/12 14:19:10;;;;;;;;;;;21.10;35.30;;;;;;5060938;28;20045;-64
2022/01/12 14:21:37;;;;;;;;;;;21.10;35.30;;;;;;5092177;28;19912;-63
2022/01/12 14:24:06;;;;;;;;;;;21.10;35.30;;;;;;5077293;28;19948;-63
2022/01/12 14:26:41;;;;;;;;;;;21.10;35.30;;;;;;5084091;28;19919;-63
2022/01/12 14:29:09;;;;;;;;;;;21.10;35.30;;;;;;5086504;28;19963;-64
2022/01/12 14:31:35;;;;;;;;;;;21.10;35.30;;;;;;5082589;28;19919;-64
2022/01/12 14:34:01;;;;;;;;;;;21.10;35.30;;;;;;5083252;28;20007;-64
2022/01/12 14:36:27;;;;;;;;;;;21.10;35.30;;;;;;5080712;28;20403;-64
2022/01/12 14:38:52;;;;;;;;;;;21.10;35.30;;;;;;5080026;28;19928;-65
2022/01/12 14:41:18;;;;;;;;;;;21.10;35.30;;;;;;5084372;28;19994;-63
2022/01/12 14:43:43;;;;;;;;;;;21.10;35.30;;;;;;5078777;28;19916;-64
2022/01/12 14:46:09;;;;;;;;;;;21.10;35.30;;;;;;5087460;28;19959;-64
2022/01/12 14:48:34;;;;;;;;;;;21.10;35.30;;;;;;5091737;28;20364;-64
2022/01/12 14:51:00;;;;;;;;;;;21.10;35.30;;;;;;5091566;28;19912;-64
2022/01/12 14:53:25;;;;;;;;;;;21.10;35.30;;;;;;5092184;28;19915;-64
2022/01/12 14:55:52;;;;;;;;;;;21.20;35.30;;;;;;5062824;28;19919;-64
2022/01/12 14:58:18;;;;;;;;;;;21.10;35.40;;;;;;5087621;28;19928;-64
2022/01/12 15:00:44;;;;;;;;;;;21.20;35.20;;;;;;5085291;28;20715;-64
2022/01/12 15:03:10;;;;;;;;;;;21.20;35.20;;;;;;5072204;28;19909;-64
2022/01/12 15:05:36;;;;;;;;;;;21.20;35.30;;;;;;5083950;28;19947;-64
2022/01/12 15:08:02;;;;;;;;;;;21.10;35.40;;;;;;5071774;28;19912;-65
2022/01/12 15:10:28;;;;;;;;;;;21.20;35.40;;;;;;5080240;28;19916;-64
2022/01/12 15:12:56;;;;;;;;;;;21.20;35.40;;;;;;5086129;28;19916;-64
2022/01/12 15:15:22;;;;;;;;;;;21.20;35.40;;;;;;5088170;28;19920;-65
2022/01/12 15:17:47;;;;;;;;;;;21.20;35.40;;;;;;5071477;28;19926;-63
2022/01/12 15:20:14;;;;;;;;;;;21.20;35.50;;;;;;5083818;28;19912;-64
2022/01/12 15:22:41;;;;;;;;;;;21.10;35.60;;;;;;5071641;28;19908;-64
2022/01/12 15:25:07;;;;;;;;;;;21.20;35.70;;;;;;5084341;28;19935;-64
2022/01/12 15:27:33;;;;;;;;;;;21.20;35.80;;;;;;5072057;28;19920;-65
2022/01/12 15:29:59;;;;;;;;;;;21.20;35.80;;;;;;5082615;28;19916;-65
2022/01/12 15:32:26;;;;;;;;;;;21.20;35.70;;;;;;5081020;28;19912;-64
2022/01/12 15:34:53;;;;;;;;;;;21.20;35.80;;;;;;5081278;28;20415;-63
2022/01/12 15:37:19;;;;;;;;;;;21.20;35.70;;;;;;5088743;28;20015;-63
2022/01/12 15:39:44;;;;;;;;;;;21.20;35.80;;;;;;5089767;28;20058;-64